createdAt,value
2023-03-18T00:01:48.107Z,88.40
2023-03-18T00:04:15.258Z,88.30
2023-03-18T00:06:43.738Z,88.90
2023-03-18T00:09:12.496Z,89.50
2023-03-18T00:11:40.758Z,90.00
2023-03-18T00:14:09.742Z,90.00
2023-03-18T00:16:37.451Z,90.50
2023-03-18T00:19:05.012Z,90.40
2023-03-18T00:21:32.680Z,90.60
2023-03-18T00:24:00.733Z,90.80
2023-03-18T00:26:29.258Z,91.00
2023-03-18T00:28:57.564Z,91.20
2023-03-18T00:31:25.855Z,91.50
2023-03-18T00:33:53.082Z,91.90
2023-03-18T00:36:25.770Z,92.10
2023-03-18T00:38:57.797Z,92.00
2023-03-18T00:41:27.478Z,92.20
2023-03-18T00:43:55.410Z,92.10
2023-03-18T00:46:25.142Z,92.20
2023-03-18T00:49:05.200Z,92.50
2023-03-18T00:51:34.809Z,92.20
2023-03-18T00:54:07.267Z,92.30
2023-03-18T00:56:37.847Z,92.50
2023-03-18T00:59:07.420Z,92.50
2023-03-18T01:01:36.834Z,92.70
2023-03-18T01:04:04.553Z,92.90
2023-03-18T01:06:35.118Z,93.20
2023-03-18T01:09:04.736Z,93.40
2023-03-18T01:11:32.179Z,93.40
2023-03-18T01:14:00.663Z,93.60
2023-03-18T01:16:28.204Z,94.00
2023-03-18T01:18:55.690Z,94.20
2023-03-18T01:21:22.838Z,94.20
2023-03-18T01:23:54.804Z,94.50
2023-03-18T01:26:22.284Z,94.40
2023-03-18T01:28:50.001Z,94.50
2023-03-18T01:31:17.252Z,94.70
2023-03-18T01:33:46.512Z,94.70
2023-03-18T01:36:15.625Z,95.00
2023-03-18T01:38:44.337Z,95.10
2023-03-18T01:41:14.724Z,95.70
2023-03-18T01:43:43.389Z,95.50
2023-03-18T01:46:32.616Z,95.70
2023-03-18T01:49:03.024Z,95.90
2023-03-18T01:51:31.212Z,96.10
2023-03-18T01:54:01.098Z,97.00
2023-03-18T01:56:28.698Z,97.10
2023-03-18T01:58:58.982Z,97.20
2023-03-18T02:01:33.814Z,97.60
2023-03-18T02:04:09.238Z,98.10
2023-03-18T02:06:39.613Z,98.70
2023-03-18T02:09:09.139Z,99.60
2023-03-18T02:11:39.832Z,99.50
2023-03-18T02:14:09.809Z,99.40
2023-03-18T02:16:45.455Z,99.90
2023-03-18T02:19:49.268Z,99.90
2023-03-18T02:22:28.158Z,99.90
2023-03-18T02:25:20.612Z,99.90
2023-03-18T02:27:54.794Z,99.90
2023-03-18T02:30:27.327Z,99.90
2023-03-18T02:32:59.056Z,99.90
2023-03-18T02:35:29.298Z,99.90
2023-03-18T02:37:59.429Z,99.90
2023-03-18T02:40:32.045Z,99.90
2023-03-18T02:43:20.330Z,99.90
2023-03-18T02:46:13.283Z,99.90
2023-03-18T02:48:44.552Z,99.90
2023-03-18T02:51:14.671Z,99.90
2023-03-18T02:53:42.966Z,99.90
2023-03-18T02:56:10.790Z,99.90
2023-03-18T02:58:39.966Z,99.90
2023-03-18T03:01:08.398Z,99.90
2023-03-18T03:03:36.558Z,99.90
2023-03-18T03:06:04.504Z,99.90
2023-03-18T03:08:31.815Z,99.90
2023-03-18T03:10:59.576Z,99.90
2023-03-18T03:13:29.513Z,99.90
2023-03-18T03:15:57.393Z,99.90
2023-03-18T03:18:25.514Z,99.90
2023-03-18T03:20:53.531Z,99.90
2023-03-18T03:23:21.444Z,99.90
2023-03-18T03:25:49.348Z,99.90
2023-03-18T03:28:17.323Z,99.90
2023-03-18T03:30:45.562Z,99.90
2023-03-18T03:33:13.590Z,99.90
2023-03-18T03:35:41.784Z,99.90
2023-03-18T03:38:09.504Z,99.90
2023-03-18T03:40:37.396Z,99.90
2023-03-18T03:43:05.686Z,99.90
2023-03-18T03:45:33.772Z,99.90
2023-03-18T03:48:01.087Z,99.90
2023-03-18T03:50:28.672Z,99.90
2023-03-18T03:52:56.086Z,99.90
2023-03-18T03:55:23.967Z,99.90
2023-03-18T03:57:54.063Z,99.90
2023-03-18T04:00:23.501Z,99.90
2023-03-18T04:02:52.439Z,99.90
2023-03-18T04:05:23.703Z,99.90
2023-03-18T04:07:52.434Z,99.90
2023-03-18T04:10:27.476Z,99.90
2023-03-18T04:12:55.116Z,99.90
2023-03-18T04:15:22.903Z,99.90
2023-03-18T04:17:53.366Z,99.90
2023-03-18T04:20:21.585Z,99.90
2023-03-18T04:22:49.510Z,99.90
2023-03-18T04:25:19.636Z,99.90
2023-03-18T04:27:52.595Z,99.90
2023-03-18T04:30:20.871Z,99.90
2023-03-18T04:32:57.092Z,99.90
2023-03-18T04:35:24.554Z,99.90
2023-03-18T04:37:51.693Z,99.90
2023-03-18T04:40:20.115Z,99.90
2023-03-18T04:42:48.015Z,99.90
2023-03-18T04:45:17.858Z,99.90
2023-03-18T04:47:45.607Z,99.90
2023-03-18T04:50:14.608Z,99.90
2023-03-18T04:52:43.739Z,99.90
2023-03-18T04:55:16.492Z,99.90
2023-03-18T04:57:44.617Z,99.90
2023-03-18T05:00:21.535Z,99.90
2023-03-18T05:02:52.548Z,99.90
2023-03-18T05:05:22.755Z,99.90
2023-03-18T05:07:52.180Z,99.90
2023-03-18T05:10:21.196Z,99.90
2023-03-18T05:12:48.774Z,99.90
2023-03-18T05:15:19.673Z,99.90
2023-03-18T05:17:53.026Z,99.90
2023-03-18T05:20:20.632Z,99.90
2023-03-18T05:22:48.348Z,99.90
2023-03-18T05:25:26.429Z,99.90
2023-03-18T05:27:54.643Z,99.90
2023-03-18T05:30:34.670Z,99.90
2023-03-18T05:33:01.843Z,99.90
2023-03-18T05:35:41.596Z,99.90
2023-03-18T05:38:09.005Z,99.90
2023-03-18T05:40:37.573Z,99.90
2023-03-18T05:43:11.634Z,99.90
2023-03-18T05:45:46.317Z,99.90
2023-03-18T05:48:16.417Z,99.90
2023-03-18T05:50:52.089Z,99.90
2023-03-18T05:53:23.669Z,99.90
2023-03-18T05:55:58.324Z,99.90
2023-03-18T05:58:31.331Z,99.90
2023-03-18T06:01:14.166Z,99.90
2023-03-18T06:03:42.912Z,99.90
2023-03-18T06:06:10.068Z,99.90
2023-03-18T06:08:37.980Z,99.90
2023-03-18T06:11:05.494Z,99.90
2023-03-18T06:13:33.356Z,99.90
2023-03-18T06:16:01.500Z,99.90
2023-03-18T06:18:30.749Z,99.90
2023-03-18T06:20:57.796Z,99.90
2023-03-18T06:23:25.077Z,99.90
2023-03-18T06:25:53.140Z,99.90
2023-03-18T06:28:26.427Z,99.90
2023-03-18T06:30:58.163Z,99.90
2023-03-18T06:33:26.244Z,99.90
2023-03-18T06:35:55.141Z,99.90
2023-03-18T06:38:23.031Z,99.70
2023-03-18T06:40:51.424Z,97.80
2023-03-18T06:43:18.856Z,95.30
2023-03-18T06:45:46.596Z,91.30
2023-03-18T06:48:14.140Z,84.10
2023-03-18T06:50:44.191Z,77.80
2023-03-18T06:53:21.372Z,71.00
2023-03-18T06:55:49.854Z,66.50
2023-03-18T06:58:20.486Z,64.40
2023-03-18T07:00:59.008Z,63.00
2023-03-18T07:03:30.613Z,64.00
2023-03-18T07:05:58.047Z,61.70
2023-03-18T07:08:25.525Z,62.00
2023-03-18T07:10:56.981Z,60.70
2023-03-18T07:13:25.423Z,54.70
2023-03-18T07:15:56.612Z,55.40
2023-03-18T07:18:24.936Z,55.60
2023-03-18T07:20:52.717Z,55.90
2023-03-18T07:23:22.203Z,54.40
2023-03-18T07:25:49.845Z,54.10
2023-03-18T07:28:20.165Z,53.70
2023-03-18T07:30:47.572Z,52.40
2023-03-18T07:33:15.856Z,51.70
2023-03-18T07:35:45.612Z,49.40
2023-03-18T07:38:12.900Z,48.00
2023-03-18T07:40:40.115Z,48.50
2023-03-18T07:43:07.506Z,47.00
2023-03-18T07:45:34.980Z,46.30
2023-03-18T07:48:02.140Z,44.70
2023-03-18T07:50:29.274Z,43.60
2023-03-18T07:52:57.153Z,42.30
2023-03-18T07:55:24.572Z,41.60
2023-03-18T07:57:51.700Z,43.30
2023-03-18T08:00:19.432Z,42.20
2023-03-18T08:02:46.685Z,42.40
2023-03-18T08:05:14.527Z,41.50
2023-03-18T08:07:42.766Z,41.10
2023-03-18T08:10:11.493Z,40.00
2023-03-18T08:12:52.062Z,40.30
2023-03-18T08:15:20.260Z,39.00
2023-03-18T08:17:47.412Z,37.80
2023-03-18T08:20:15.554Z,38.90
2023-03-18T08:22:42.754Z,39.00
2023-03-18T08:25:11.659Z,40.50
2023-03-18T08:27:38.714Z,39.40
2023-03-18T08:30:07.080Z,39.80
2023-03-18T08:32:34.942Z,38.50
2023-03-18T08:35:02.729Z,38.40
2023-03-18T08:37:29.825Z,39.10
2023-03-18T08:39:56.912Z,37.90
2023-03-18T08:42:24.203Z,38.50
2023-03-18T08:44:51.315Z,39.00
2023-03-18T08:47:18.444Z,41.00
2023-03-18T08:49:45.617Z,40.40
2023-03-18T08:52:12.959Z,42.50
2023-03-18T08:54:40.059Z,44.80
2023-03-18T08:57:07.115Z,45.30
2023-03-18T08:59:34.179Z,47.10
2023-03-18T09:02:01.343Z,48.00
2023-03-18T09:04:29.400Z,48.60
2023-03-18T09:06:57.253Z,50.30
2023-03-18T09:09:31.093Z,50.00
2023-03-18T09:12:05.726Z,49.50
2023-03-18T09:14:33.289Z,50.70
2023-03-18T09:17:01.094Z,48.80
2023-03-18T09:19:28.676Z,50.00
2023-03-18T09:21:56.152Z,49.30
2023-03-18T09:24:23.168Z,51.60
2023-03-18T09:26:50.376Z,49.60
2023-03-18T09:29:17.318Z,51.00
2023-03-18T09:31:45.271Z,52.10
2023-03-18T09:34:13.709Z,53.40
2023-03-18T09:36:42.234Z,53.00
2023-03-18T09:39:10.175Z,50.60
2023-03-18T09:41:54.855Z,50.70
2023-03-18T09:44:26.853Z,50.50
2023-03-18T09:47:15.766Z,52.40
2023-03-18T09:49:43.065Z,47.90
2023-03-18T09:52:34.031Z,50.80
2023-03-18T09:55:04.933Z,49.50
2023-03-18T09:57:39.006Z,48.60
2023-03-18T10:00:16.132Z,48.80
2023-03-18T10:02:50.617Z,47.60
2023-03-18T10:05:26.577Z,48.20
2023-03-18T10:07:57.426Z,50.10
2023-03-18T10:10:29.618Z,49.40
2023-03-18T10:13:08.570Z,48.00
2023-03-18T10:15:42.879Z,48.50
2023-03-18T10:18:17.091Z,51.20
2023-03-18T10:21:04.361Z,48.80
2023-03-18T10:23:34.917Z,50.40
2023-03-18T10:26:10.142Z,49.30
2023-03-18T10:28:57.891Z,49.80
2023-03-18T10:31:45.839Z,49.90
2023-03-18T10:34:13.349Z,51.50
2023-03-18T10:37:05.719Z,50.50
2023-03-18T10:39:35.370Z,50.20
2023-03-18T10:42:27.404Z,50.10
2023-03-18T10:45:03.727Z,50.90
2023-03-18T10:47:36.148Z,49.80
2023-03-18T10:50:28.668Z,49.50
2023-03-18T10:52:59.514Z,51.90
2023-03-18T10:55:32.925Z,51.10
2023-03-18T10:58:01.752Z,49.90
2023-03-18T11:00:33.515Z,48.80
2023-03-18T11:03:02.736Z,48.90
2023-03-18T11:05:35.151Z,50.10
2023-03-18T11:08:09.192Z,52.30
2023-03-18T11:10:40.590Z,51.60
2023-03-18T11:13:07.708Z,49.90
2023-03-18T11:15:40.448Z,49.20
2023-03-18T11:18:18.324Z,50.00
2023-03-18T11:20:49.356Z,49.10
2023-03-18T11:23:57.296Z,49.00
2023-03-18T11:26:27.840Z,50.40
2023-03-18T11:29:05.141Z,49.80
2023-03-18T11:31:32.512Z,50.10
2023-03-18T11:34:00.649Z,50.90
2023-03-18T11:36:28.481Z,51.00
2023-03-18T11:39:04.341Z,51.40
2023-03-18T11:41:31.476Z,50.40
2023-03-18T11:44:19.663Z,50.90
2023-03-18T11:46:54.906Z,51.00
2023-03-18T11:49:25.340Z,52.40
2023-03-18T11:52:22.414Z,51.60
2023-03-18T11:55:18.123Z,50.20
2023-03-18T11:58:20.400Z,53.30
2023-03-18T12:00:52.834Z,51.80
2023-03-18T12:03:55.451Z,53.40
2023-03-18T12:06:28.682Z,51.90
2023-03-18T12:09:15.645Z,52.70
2023-03-18T12:12:07.077Z,51.20
2023-03-18T12:14:38.982Z,51.70
2023-03-18T12:17:13.470Z,51.20
2023-03-18T12:20:02.948Z,51.80
2023-03-18T12:22:45.603Z,51.40
2023-03-18T12:25:22.809Z,51.80
2023-03-18T12:27:57.897Z,52.80
2023-03-18T12:30:40.966Z,51.90
2023-03-18T12:33:31.672Z,52.40
2023-03-18T12:36:14.642Z,51.30
2023-03-18T12:38:43.040Z,52.50
2023-03-18T12:41:37.112Z,51.70
2023-03-18T12:44:11.886Z,51.50
2023-03-18T12:46:46.977Z,53.00
2023-03-18T12:49:19.866Z,54.20
2023-03-18T12:51:54.472Z,52.60
2023-03-18T12:54:29.323Z,52.70
2023-03-18T12:57:04.124Z,53.60
2023-03-18T12:59:38.914Z,51.30
2023-03-18T13:02:26.417Z,53.30
2023-03-18T13:04:58.826Z,54.40
2023-03-18T13:07:50.923Z,53.30
2023-03-18T13:10:24.404Z,54.00
2023-03-18T13:12:59.710Z,56.30
2023-03-18T13:15:33.064Z,53.50
2023-03-18T13:18:14.884Z,55.40
2023-03-18T13:20:43.809Z,54.70
2023-03-18T13:23:50.692Z,53.40
2023-03-18T13:26:45.271Z,56.30
2023-03-18T13:29:25.155Z,55.10
2023-03-18T13:31:57.970Z,55.40
2023-03-18T13:34:52.536Z,54.70
2023-03-18T13:37:47.326Z,55.50
2023-03-18T13:40:31.869Z,53.90
2023-03-18T13:43:00.387Z,53.60
2023-03-18T13:45:39.708Z,54.50
2023-03-18T13:48:08.801Z,55.30
2023-03-18T13:50:39.939Z,54.40
2023-03-18T13:53:22.221Z,56.20
2023-03-18T13:55:57.857Z,56.80
2023-03-18T13:58:29.913Z,56.10
2023-03-18T14:00:57.171Z,54.40
2023-03-18T14:03:30.816Z,55.40
2023-03-18T14:06:08.922Z,56.40
2023-03-18T14:08:39.736Z,55.00
2023-03-18T14:11:47.865Z,56.40
2023-03-18T14:14:40.477Z,58.50
2023-03-18T14:17:17.722Z,57.00
2023-03-18T14:19:45.410Z,55.20
2023-03-18T14:22:24.075Z,56.50
2023-03-18T14:25:14.674Z,56.30
2023-03-18T14:28:09.981Z,55.60
2023-03-18T14:30:37.452Z,57.50
2023-03-18T14:33:22.900Z,58.40
2023-03-18T14:35:58.144Z,56.30
2023-03-18T14:38:31.675Z,57.20
2023-03-18T14:40:59.993Z,55.20
2023-03-18T14:43:38.001Z,56.90
2023-03-18T14:46:14.584Z,57.20
2023-03-18T14:48:41.867Z,58.00
2023-03-18T14:51:17.801Z,59.10
2023-03-18T14:53:49.196Z,58.00
2023-03-18T14:56:28.991Z,57.40
2023-03-18T14:58:56.844Z,60.30
2023-03-18T15:01:40.054Z,59.10
2023-03-18T15:04:17.958Z,58.80
2023-03-18T15:06:45.724Z,59.60
2023-03-18T15:09:25.744Z,60.50
2023-03-18T15:11:53.865Z,59.50
2023-03-18T15:14:30.398Z,61.00
2023-03-18T15:17:01.890Z,60.60
2023-03-18T15:19:30.747Z,61.40
2023-03-18T15:22:03.460Z,64.50
2023-03-18T15:24:30.936Z,63.10
2023-03-18T15:27:05.858Z,63.60
2023-03-18T15:29:37.198Z,61.40
2023-03-18T15:32:20.590Z,62.00
2023-03-18T15:34:59.018Z,62.20
2023-03-18T15:37:33.768Z,62.30
2023-03-18T15:40:36.985Z,63.50
2023-03-18T15:43:11.512Z,64.80
2023-03-18T15:45:47.281Z,64.50
2023-03-18T15:48:31.768Z,63.40
2023-03-18T15:51:02.274Z,64.10
2023-03-18T15:53:39.378Z,63.70
2023-03-18T15:56:16.469Z,63.20
2023-03-18T15:58:45.194Z,64.80
2023-03-18T16:01:17.953Z,65.20
2023-03-18T16:03:46.748Z,63.60
2023-03-18T16:06:15.032Z,63.20
2023-03-18T16:08:42.769Z,65.10
2023-03-18T16:11:13.133Z,63.90
2023-03-18T16:13:43.206Z,63.60
2023-03-18T16:16:20.988Z,62.90
2023-03-18T16:18:49.068Z,62.70
2023-03-18T16:21:16.281Z,62.30
2023-03-18T16:23:43.664Z,61.70
2023-03-18T16:26:16.895Z,62.70
2023-03-18T16:28:47.897Z,63.10
2023-03-18T16:31:15.778Z,63.10
2023-03-18T16:33:45.277Z,63.60
2023-03-18T16:36:25.057Z,64.40
2023-03-18T16:38:52.512Z,62.80
2023-03-18T16:41:19.793Z,64.00
2023-03-18T16:43:49.158Z,63.50
2023-03-18T16:46:17.654Z,63.40
2023-03-18T16:48:45.075Z,63.60
2023-03-18T16:51:13.111Z,64.00
2023-03-18T16:53:40.225Z,64.90
2023-03-18T16:56:18.077Z,65.90
2023-03-18T16:58:45.636Z,66.30
2023-03-18T17:01:16.597Z,68.60
2023-03-18T17:03:44.304Z,68.00
2023-03-18T17:06:12.757Z,69.00
2023-03-18T17:08:40.249Z,67.50
2023-03-18T17:11:08.035Z,68.70
2023-03-18T17:13:37.924Z,71.10
2023-03-18T17:16:05.462Z,71.80
2023-03-18T17:18:33.357Z,72.60
2023-03-18T17:21:00.948Z,73.90
2023-03-18T17:23:29.003Z,75.00
2023-03-18T17:25:59.720Z,75.10
2023-03-18T17:28:34.812Z,75.90
2023-03-18T17:31:03.131Z,77.20
2023-03-18T17:33:33.087Z,76.90
2023-03-18T17:36:02.081Z,77.00
2023-03-18T17:38:31.212Z,77.70
2023-03-18T17:40:59.647Z,77.50
2023-03-18T17:43:31.806Z,77.60
2023-03-18T17:46:00.693Z,78.50
2023-03-18T17:48:30.300Z,78.60
2023-03-18T17:51:01.016Z,79.30
2023-03-18T17:53:48.223Z,79.30
2023-03-18T17:56:18.537Z,79.80
2023-03-18T17:58:48.953Z,80.90
2023-03-18T18:01:19.729Z,81.50
2023-03-18T18:03:47.904Z,82.10
2023-03-18T18:06:19.480Z,83.00
2023-03-18T18:08:48.389Z,83.00
2023-03-18T18:11:26.127Z,83.70
2023-03-18T18:13:58.041Z,84.90
2023-03-18T18:16:25.301Z,85.50
2023-03-18T18:18:52.841Z,85.90
2023-03-18T18:21:21.955Z,87.30
2023-03-18T18:23:49.138Z,87.60
2023-03-18T18:26:18.591Z,88.30
2023-03-18T18:28:48.499Z,89.00
2023-03-18T18:31:18.100Z,89.60
2023-03-18T18:33:46.879Z,89.80
2023-03-18T18:36:14.485Z,90.00
2023-03-18T18:38:41.720Z,90.00
2023-03-18T18:41:09.452Z,90.40
2023-03-18T18:43:36.473Z,90.80
2023-03-18T18:46:04.368Z,91.10
2023-03-18T18:48:34.624Z,91.00
2023-03-18T18:51:04.283Z,91.00
2023-03-18T18:53:36.779Z,91.00
2023-03-18T18:56:25.391Z,90.50
2023-03-18T18:58:52.993Z,90.70
2023-03-18T19:01:20.115Z,90.70
2023-03-18T19:03:48.358Z,91.00
2023-03-18T19:06:29.299Z,91.20
2023-03-18T19:08:58.366Z,91.60
2023-03-18T19:11:27.323Z,91.50
2023-03-18T19:13:57.512Z,91.80
2023-03-18T19:16:26.044Z,92.50
2023-03-18T19:18:54.117Z,92.80
2023-03-18T19:21:22.155Z,93.30
2023-03-18T19:23:50.830Z,93.40
2023-03-18T19:26:19.233Z,93.50
2023-03-18T19:28:56.920Z,93.30
2023-03-18T19:31:27.085Z,93.70
2023-03-18T19:33:54.756Z,93.80
2023-03-18T19:36:40.616Z,94.30
2023-03-18T19:39:14.614Z,94.80
2023-03-18T19:41:42.355Z,95.30
2023-03-18T19:44:19.669Z,95.60
2023-03-18T19:46:48.069Z,95.90
2023-03-18T19:49:21.864Z,96.20
2023-03-18T19:51:50.280Z,96.80
2023-03-18T19:54:35.745Z,97.20
2023-03-18T19:57:12.524Z,97.50
2023-03-18T19:59:40.105Z,97.60
2023-03-18T20:02:17.030Z,98.00
2023-03-18T20:04:44.493Z,97.90
2023-03-18T20:07:11.664Z,98.00
2023-03-18T20:09:39.542Z,98.30
2023-03-18T20:12:10.544Z,98.20
2023-03-18T20:14:39.205Z,98.70
2023-03-18T20:17:29.023Z,99.00
2023-03-18T20:19:57.681Z,99.30
2023-03-18T20:22:28.879Z,99.40
2023-03-18T20:24:56.756Z,99.80
2023-03-18T20:27:24.093Z,99.90
2023-03-18T20:29:51.578Z,99.90
2023-03-18T20:32:18.735Z,99.90
2023-03-18T20:34:47.096Z,99.90
2023-03-18T20:37:34.916Z,99.90
2023-03-18T20:40:13.390Z,99.90
2023-03-18T20:42:41.674Z,99.90
2023-03-18T20:45:15.696Z,99.90
2023-03-18T20:47:44.064Z,99.90
2023-03-18T20:50:14.214Z,99.90
2023-03-18T20:52:44.192Z,99.90
2023-03-18T20:55:21.444Z,99.90
2023-03-18T20:57:49.741Z,99.90
2023-03-18T21:00:19.427Z,99.90
2023-03-18T21:02:47.881Z,99.90
2023-03-18T21:05:15.335Z,99.90
2023-03-18T21:07:43.970Z,99.90
2023-03-18T21:10:18.867Z,99.90
2023-03-18T21:12:46.405Z,99.90
2023-03-18T21:15:20.985Z,99.90
2023-03-18T21:17:49.311Z,99.90
2023-03-18T21:20:22.654Z,99.90
2023-03-18T21:22:50.936Z,99.90
2023-03-18T21:25:26.786Z,99.90
2023-03-18T21:27:54.555Z,99.90
2023-03-18T21:30:24.003Z,99.90
2023-03-18T21:32:51.638Z,99.90
2023-03-18T21:35:23.321Z,99.90
2023-03-18T21:37:51.244Z,99.90
2023-03-18T21:40:21.764Z,99.90
2023-03-18T21:42:50.777Z,99.90
2023-03-18T21:45:21.089Z,99.90
2023-03-18T21:47:48.354Z,99.90
2023-03-18T21:50:24.513Z,99.90
2023-03-18T21:52:53.133Z,99.90
2023-03-18T21:55:21.166Z,99.90
2023-03-18T21:57:49.284Z,99.90
2023-03-18T22:00:20.029Z,99.90
2023-03-18T22:02:47.825Z,99.90
2023-03-18T22:05:18.690Z,99.90
2023-03-18T22:07:46.220Z,99.90
2023-03-18T22:10:18.542Z,99.90
2023-03-18T22:12:45.829Z,99.90
2023-03-18T22:15:34.695Z,99.90
2023-03-18T22:18:02.540Z,99.90
2023-03-18T22:20:30.112Z,99.90
2023-03-18T22:22:57.354Z,99.90
2023-03-18T22:25:25.864Z,99.90
2023-03-18T22:27:52.933Z,99.90
2023-03-18T22:30:20.110Z,99.90
2023-03-18T22:32:47.727Z,99.90
2023-03-18T22:35:17.922Z,99.90
2023-03-18T22:37:46.048Z,99.90
2023-03-18T22:40:18.450Z,99.90
2023-03-18T22:42:50.632Z,99.90
2023-03-18T22:45:21.760Z,99.90
2023-03-18T22:47:51.680Z,99.90
2023-03-18T22:50:19.579Z,99.90
2023-03-18T22:52:49.091Z,99.90
2023-03-18T22:55:21.957Z,99.90
2023-03-18T22:57:50.063Z,99.90
2023-03-18T23:00:30.908Z,99.90
2023-03-18T23:02:58.684Z,99.90
2023-03-18T23:05:26.042Z,99.90
2023-03-18T23:07:54.054Z,99.90
2023-03-18T23:10:21.737Z,99.90
2023-03-18T23:12:48.967Z,99.90
2023-03-18T23:15:18.351Z,99.90
2023-03-18T23:17:46.410Z,99.90
2023-03-18T23:20:15.732Z,99.90
2023-03-18T23:22:43.923Z,99.90
2023-03-18T23:25:16.642Z,99.90
2023-03-18T23:27:44.533Z,99.90
2023-03-18T23:30:13.198Z,99.90
2023-03-18T23:32:41.225Z,99.90
2023-03-18T23:35:09.209Z,99.90
2023-03-18T23:37:36.516Z,99.90
2023-03-18T23:40:05.745Z,99.90
2023-03-18T23:42:32.887Z,99.90
2023-03-18T23:45:00.015Z,99.90
2023-03-18T23:47:27.221Z,99.90
2023-03-18T23:49:54.365Z,99.90
2023-03-18T23:52:21.437Z,99.90
2023-03-18T23:54:49.006Z,99.90
2023-03-18T23:57:16.208Z,99.90
2023-03-18T23:59:43.338Z,99.90
